SCCY/GXQ METAR and TAF weather

Enter ICAO airport designator
Station Type Date Time Source
SCCY METAR 2019/10/15 04:00 UTC NOAA

SCCY 150400Z AUTO 02005KT 340V050 CAVOK 10/M09 Q1025


Station Type Date Time Source
SCCY Decoded METAR 2019/10/15 04:00 UTC NOAA

Coyhaique, Chile (SCCY) 45-35S 072-07W
Oct 15, 2019 - 12:00 AM EDT / 2019.10.15 0400 UTC
Wind: from the NNE (020 degrees) at 6 MPH (5 KT) (direction variable):0
Visibility: greater than 7 mile(s):0
Temperature: 50 F (10 C)
Dew Point: 15 F (-9 C)
Relative Humidity: 25%
Pressure (altimeter): 30.27 in. Hg (1025 hPa)
ob: SCCY 150400Z AUTO 02005KT 340V050 CAVOK 10/M09 Q1025
cycle: 4

Station Type Date Time Source
SCCY TAF 2019/10/14 12:33 UTC NOAA

TAF SCCY 141030Z 1412/1424 14010KT CAVOK TN00/1412Z TX14/1419Z
BECMG 1415/1417 03012KT

Example: see airport list